Time;durP1;ratioP1;P1;durP2;ratioP2;P2;SDS_P1;SDS_P2;PMS_P1;PMS_P2;Temp;Humidity;BMP_temperature;BMP_pressure;BME280_temperature;BME280_humidity;BME280_pressure;Samples;Min_cycle;Max_cycle;Signal;HPM_P1;HPM_P2
2022/03/01 00:03:04;;;;;;;10.45;6.20;;;;;;;3.31;39.02;101396.28;7740005;32;39991;-75
2022/03/01 00:07:20;;;;;;;13.55;6.80;;;;;;;3.26;39.22;101389.75;7738056;32;40951;-76
2022/03/01 00:11:36;;;;;;;11.55;6.47;;;;;;;3.25;39.18;101388.94;7744556;32;38051;-76
2022/03/01 00:15:52;;;;;;;7.93;5.53;;;;;;;3.38;38.96;101402.63;7737933;32;37084;-76
2022/03/01 00:20:09;;;;;;;9.98;6.25;;;;;;;3.11;39.57;101390.59;7740761;32;39211;-76
2022/03/01 00:24:25;;;;;;;12.93;6.35;;;;;;;3.32;39.24;101394.44;7738030;32;38581;-77
2022/03/01 00:28:41;;;;;;;12.07;5.95;;;;;;;3.22;39.67;101392.00;7737727;32;37987;-76
2022/03/01 00:32:57;;;;;;;9.07;5.28;;;;;;;3.20;39.55;101388.66;7758073;32;37165;-76
2022/03/01 00:37:13;;;;;;;9.65;5.35;;;;;;;3.29;39.54;101394.78;7764696;32;39907;-76
2022/03/01 00:41:29;;;;;;;8.75;5.50;;;;;;;3.42;39.11;101391.47;7753136;32;39885;-77
2022/03/01 00:45:45;;;;;;;9.93;6.45;;;;;;;2.97;39.82;101391.41;7737580;32;37813;-76
2022/03/01 00:50:02;;;;;;;9.80;5.75;;;;;;;2.77;40.48;101380.28;7738720;32;38435;-77
2022/03/01 00:54:18;;;;;;;10.25;5.68;;;;;;;2.90;40.08;101385.91;7764351;32;40018;-76
2022/03/01 00:58:34;;;;;;;7.40;5.10;;;;;;;2.97;39.96;101381.47;7764103;32;39706;-77
2022/03/01 01:02:51;;;;;;;11.73;6.43;;;;;;;2.96;40.05;101379.78;7743949;32;37626;-78
2022/03/01 01:07:07;;;;;;;8.95;5.43;;;;;;;2.72;40.71;101377.31;7736735;32;37030;-77
2022/03/01 01:11:23;;;;;;;8.18;5.30;;;;;;;2.93;40.22;101373.91;7746700;32;39899;-77
2022/03/01 01:15:39;;;;;;;9.10;5.60;;;;;;;2.86;39.83;101379.19;7762331;32;40736;-77
2022/03/01 01:19:56;;;;;;;12.70;5.78;;;;;;;2.86;40.20;101383.75;7749085;32;37868;-77
2022/03/01 01:24:12;;;;;;;11.85;5.78;;;;;;;2.86;40.63;101389.13;7736639;32;37076;-77
2022/03/01 01:28:28;;;;;;;14.38;6.55;;;;;;;2.89;41.25;101386.09;7737919;32;39991;-76
2022/03/01 01:32:47;;;;;;;8.25;5.87;;;;;;;2.53;42.85;101392.91;7763419;32;40017;-76
2022/03/01 01:37:05;;;;;;;10.07;6.53;;;;;;;2.53;42.93;101390.22;7763292;32;38578;-77
2022/03/01 01:41:21;;;;;;;9.38;5.87;;;;;;;2.55;42.88;101385.53;7743059;32;37147;-77
2022/03/01 01:45:37;;;;;;;10.15;5.90;;;;;;;2.70;42.20;101390.13;7736085;32;40142;-76
2022/03/01 01:49:53;;;;;;;10.70;6.53;;;;;;;2.69;42.17;101394.69;7756421;32;40811;-77
2022/03/01 01:54:09;;;;;;;9.80;6.20;;;;;;;2.69;42.33;101394.69;7762697;32;37836;-76
2022/03/01 01:58:26;;;;;;;10.15;6.20;;;;;;;2.58;42.81;101389.69;7751014;32;37837;-75
2022/03/01 02:02:42;;;;;;;9.52;6.53;;;;;;;2.58;42.53;101387.84;7735548;32;40066;-77
2022/03/01 02:06:58;;;;;;;11.43;6.28;;;;;;;2.43;44.64;101381.56;7737020;32;39997;-77
2022/03/01 02:11:14;;;;;;;12.73;6.75;;;;;;;2.75;43.48;101376.94;7762269;32;39058;-77
2022/03/01 02:15:30;;;;;;;9.02;6.32;;;;;;;2.66;43.86;101378.88;7765136;32;36936;-76
2022/03/01 02:19:50;;;;;;;9.23;6.22;;;;;;;2.58;43.99;101370.84;7746626;32;38932;-76
2022/03/01 02:24:06;;;;;;;9.40;6.72;;;;;;;2.51;44.27;101364.53;7739326;32;40727;-76
2022/03/01 02:28:22;;;;;;;11.20;6.97;;;;;;;2.38;44.38;101362.41;7749300;32;38626;-76
2022/03/01 02:32:39;;;;;;;14.63;7.82;;;;;;;2.36;44.49;101367.12;7766334;32;37674;-77
2022/03/01 02:36:56;;;;;;;10.52;6.95;;;;;;;2.25;44.46;101355.78;7754298;32;40039;-76
2022/03/01 02:41:12;;;;;;;13.40;7.32;;;;;;;2.26;44.26;101364.69;7739092;32;40765;-76
2022/03/01 02:45:28;;;;;;;12.63;7.72;;;;;;;2.05;44.24;101359.94;7740720;32;37855;-76
2022/03/01 02:49:44;;;;;;;17.65;8.48;;;;;;;1.95;44.25;101359.31;7765569;32;36991;-77
2022/03/01 02:54:01;;;;;;;13.95;7.47;;;;;;;1.57;45.41;101354.63;7766064;32;39169;-77
2022/03/01 02:58:17;;;;;;;11.57;6.75;;;;;;;1.90;44.52;101356.31;7745864;32;40081;-78
2022/03/01 03:02:33;;;;;;;13.68;7.25;;;;;;;1.82;44.80;101354.53;7739643;32;37884;-77
2022/03/01 03:06:49;;;;;;;12.07;7.93;;;;;;;2.03;43.85;101353.91;7748508;32;36977;-77
2022/03/01 03:11:06;;;;;;;11.48;6.57;;;;;;;1.95;44.08;101353.94;7765784;32;39181;-76
2022/03/01 03:15:22;;;;;;;13.45;8.25;;;;;;;1.85;44.49;101357.69;7764795;32;40875;-77
2022/03/01 03:19:38;;;;;;;11.88;7.50;;;;;;;1.71;44.99;101353.06;7738579;32;38757;-76
2022/03/01 03:23:54;;;;;;;14.07;7.60;;;;;;;1.75;44.96;101357.06;7738592;32;37067;-77
2022/03/01 03:28:10;;;;;;;11.40;7.18;;;;;;;1.54;45.79;101357.66;7738461;32;38865;-77
2022/03/01 03:32:27;;;;;;;12.52;7.30;;;;;;;1.60;45.64;101350.75;7738491;32;40729;-77
2022/03/01 03:36:44;;;;;;;11.98;6.80;;;;;;;1.62;45.70;101356.78;7738113;32;37917;-75
2022/03/01 03:41:00;;;;;;;13.10;7.75;;;;;;;1.36;46.35;101365.13;7738480;32;37790;-76
2022/03/01 03:45:16;;;;;;;11.75;7.15;;;;;;;1.44;45.42;101357.88;7737977;32;39287;-76
2022/03/01 03:49:32;;;;;;;12.40;7.72;;;;;;;1.41;44.93;101355.50;7738164;32;40000;-76
2022/03/01 03:53:48;;;;;;;13.30;7.87;;;;;;;1.37;44.74;101356.88;7737990;32;38630;-76
2022/03/01 03:58:04;;;;;;;13.35;8.23;;;;;;;1.27;45.12;101350.88;7738121;32;37734;-76
2022/03/01 04:02:20;;;;;;;10.95;7.12;;;;;;;1.07;45.62;101351.25;7737629;32;39184;-76
2022/03/01 04:06:37;;;;;;;13.07;7.43;;;;;;;0.83;45.54;101356.66;7737829;32;40639;-76
2022/03/01 04:10:54;;;;;;;12.82;7.60;;;;;;;1.15;45.13;101353.06;7737993;32;37833;-76
2022/03/01 04:15:11;;;;;;;12.63;7.53;;;;;;;1.43;44.59;101355.34;7738007;32;37768;-76
2022/03/01 04:19:27;;;;;;;12.75;7.40;;;;;;;0.97;45.75;101352.44;7737726;32;39417;-78
2022/03/01 04:23:43;;;;;;;14.02;7.95;;;;;;;1.03;46.86;101357.97;7737897;32;40731;-76
2022/03/01 04:28:02;;;;;;;11.05;7.15;;;;;;;0.99;46.79;101347.75;7737480;32;37895;-76
2022/03/01 04:32:18;;;;;;;12.63;7.57;;;;;;;0.94;46.90;101351.78;7737635;32;36945;-76
2022/03/01 04:36:34;;;;;;;12.40;7.30;;;;;;;1.22;46.10;101347.84;7736985;32;39193;-76
2022/03/01 04:40:50;;;;;;;15.68;8.10;;;;;;;0.90;47.38;101352.31;7737037;32;40832;-77
2022/03/01 04:45:09;;;;;;;14.45;7.60;;;;;;;1.00;46.92;101354.78;7737480;32;37638;-77
2022/03/01 04:49:25;;;;;;;12.95;7.62;;;;;;;0.92;46.96;101347.59;7736414;32;37101;-76
2022/03/01 04:53:41;;;;;;;13.95;8.05;;;;;;;1.08;47.10;101349.41;7737247;32;39972;-76
2022/03/01 04:57:57;;;;;;;14.20;7.53;;;;;;;1.06;47.38;101357.62;7736708;32;40725;-76
2022/03/01 05:02:13;;;;;;;11.02;7.80;;;;;;;1.15;47.72;101357.62;7737076;32;37916;-76
2022/03/01 05:06:30;;;;;;;21.83;7.40;;;;;;;1.06;48.50;101359.50;7737103;32;36787;-77
2022/03/01 05:10:46;;;;;;;15.30;7.72;;;;;;;1.13;48.75;101355.94;7736720;32;40235;-76
2022/03/01 05:15:02;;;;;;;13.25;8.90;;;;;;;0.70;50.29;101352.63;7736813;32;39857;-77
2022/03/01 05:19:18;;;;;;;11.18;7.32;;;;;;;0.89;48.60;101359.50;7736190;32;37706;-76
2022/03/01 05:23:34;;;;;;;11.80;8.52;;;;;;;0.61;49.50;101342.09;7736607;32;37608;-77
2022/03/01 05:27:52;;;;;;;12.13;7.32;;;;;;;0.62;50.19;101347.28;7738416;32;39034;-78
2022/03/01 05:32:08;;;;;;;12.70;8.30;;;;;;;0.45;50.25;101341.09;7762601;32;40081;-77
2022/03/01 05:36:27;;;;;;;16.40;8.02;;;;;;;0.51;49.51;101345.75;7763217;32;37867;-76
2022/03/01 05:40:43;;;;;;;15.88;8.20;;;;;;;0.62;49.85;101354.47;7762387;32;37597;-77
2022/03/01 05:45:02;;;;;;;12.90;7.50;;;;;;;0.73;49.94;101351.47;7763182;32;39421;-77
2022/03/01 05:49:18;;;;;;;13.70;7.90;;;;;;;0.43;51.17;101347.59;7759050;32;40872;-77
2022/03/01 05:53:34;;;;;;;14.43;8.73;;;;;;;0.72;50.19;101353.28;7765962;32;37903;-76
2022/03/01 05:57:50;;;;;;;16.48;7.85;;;;;;;0.71;50.54;101362.37;7749717;32;37021;-76
2022/03/01 06:02:06;;;;;;;12.93;8.23;;;;;;;0.90;50.44;101363.88;7739177;32;39972;-77
2022/03/01 06:06:22;;;;;;;19.65;8.38;;;;;;;0.69;50.89;101367.09;7755794;32;40691;-76
2022/03/01 06:10:38;;;;;;;13.73;8.23;;;;;;;0.85;50.54;101363.53;7764942;32;37551;-76
2022/03/01 06:14:54;;;;;;;13.00;7.68;;;;;;;1.11;49.73;101363.34;7758521;32;36675;-77
2022/03/01 06:19:11;;;;;;;14.35;8.23;;;;;;;1.08;50.02;101369.03;7739479;32;38912;-77
2022/03/01 06:23:27;;;;;;;15.32;7.87;;;;;;;1.20;49.10;101363.31;7739202;32;40655;-77
2022/03/01 06:27:43;;;;;;;13.30;8.60;;;;;;;1.25;48.76;101360.97;7750755;32;38044;-77
2022/03/01 06:31:59;;;;;;;14.05;8.35;;;;;;;1.25;48.04;101359.09;7766234;32;37040;-76
2022/03/01 06:36:15;;;;;;;13.95;8.50;;;;;;;1.47;47.39;101357.53;7749912;32;39800;-79
2022/03/01 06:40:31;;;;;;;17.05;9.75;;;;;;;1.67;46.37;101354.41;7738936;32;39855;-75
2022/03/01 06:44:47;;;;;;;18.77;10.50;;;;;;;1.66;45.01;101358.13;7752836;32;38520;-74
2022/03/01 06:49:04;;;;;;;16.80;9.43;;;;;;;1.62;44.42;101344.19;7752015;32;37209;-75
2022/03/01 06:53:20;;;;;;;15.90;8.82;;;;;;;1.70;44.41;101346.00;7758479;32;40077;-75
2022/03/01 06:57:39;;;;;;;12.48;7.80;;;;;;;1.95;43.97;101344.03;7738830;32;39886;-75
2022/03/01 07:01:55;;;;;;;12.90;8.75;;;;;;;2.09;42.49;101341.59;7758229;32;37652;-76
2022/03/01 07:06:16;;;;;;;11.77;8.15;;;;;;;2.14;41.78;101342.75;7762225;32;37155;-76
2022/03/01 07:10:33;;;;;;;15.95;8.65;;;;;;;2.54;41.31;101332.69;7755856;32;40071;-77
2022/03/01 07:14:49;;;;;;;13.38;8.52;;;;;;;1.93;43.39;101342.53;7765589;32;39925;-77
2022/03/01 07:19:05;;;;;;;11.32;7.55;;;;;;;2.79;42.47;101335.16;7743963;32;38584;-75
2022/03/01 07:23:21;;;;;;;13.25;7.43;;;;;;;3.06;42.31;101338.28;7751400;32;36919;-76
2022/03/01 07:27:52;;;;;;;14.25;8.52;;;;;;;3.22;42.02;101334.56;7738887;32;39992;-75
2022/03/01 07:32:08;;;;;;;12.75;8.07;;;;;;;3.29;41.83;101330.94;7749090;32;41004;-76
2022/03/01 07:36:25;;;;;;;16.25;8.80;;;;;;;3.41;41.73;101327.78;7743298;32;37602;-77
2022/03/01 07:40:41;;;;;;;15.20;9.20;;;;;;;3.34;41.88;101333.06;7759732;32;37385;-76
2022/03/01 07:44:57;;;;;;;19.90;9.50;;;;;;;3.43;41.83;101328.41;7761280;32;39845;-75
2022/03/01 07:49:13;;;;;;;15.70;8.55;;;;;;;3.13;50.03;101331.94;7744778;32;40862;-81
2022/03/01 07:53:29;;;;;;;16.15;8.98;;;;;;;2.91;48.04;101333.69;7743750;32;37700;-74
2022/03/01 07:57:45;;;;;;;15.57;8.63;;;;;;;3.18;44.66;101334.09;7739256;32;35538;-75
2022/03/01 08:02:01;;;;;;;25.92;11.63;;;;;;;3.55;42.85;101329.59;7739507;32;39078;-75
2022/03/01 08:06:17;;;;;;;20.30;10.82;;;;;;;3.32;43.45;101335.13;7759065;32;39872;-75
2022/03/01 08:10:33;;;;;;;19.20;11.12;;;;;;;3.56;42.68;101337.50;7742555;32;38090;-75
2022/03/01 08:14:50;;;;;;;27.37;13.30;;;;;;;3.85;41.70;101334.97;7752650;32;37185;-77
2022/03/01 08:19:06;;;;;;;28.12;12.63;;;;;;;4.13;41.17;101333.19;7758552;32;39342;-76
2022/03/01 08:23:22;;;;;;;21.17;11.82;;;;;;;3.66;41.67;101334.53;7739207;32;40732;-75
2022/03/01 08:27:38;;;;;;;23.85;11.55;;;;;;;4.33;39.75;101335.28;7738390;32;37900;-76
2022/03/01 08:31:55;;;;;;;28.75;14.50;;;;;;;4.50;39.67;101325.91;7758215;32;37115;-78
2022/03/01 08:36:13;;;;;;;23.52;13.23;;;;;;;4.39;39.76;101326.41;7761583;32;39107;-76
2022/03/01 08:40:33;;;;;;;23.98;13.13;;;;;;;4.03;41.34;101329.97;7754806;32;41984;-77
2022/03/01 08:44:49;;;;;;;21.15;11.70;;;;;;;3.97;41.14;101325.34;7737832;32;38816;-76
2022/03/01 08:49:07;;;;;;;21.48;11.12;;;;;;;4.37;40.85;101300.63;7727222;32;37931;-76
2022/03/01 08:53:24;;;;;;;22.33;12.00;;;;;;;4.54;40.71;101296.62;7756736;32;39361;-75
2022/03/01 08:57:40;;;;;;;18.45;11.23;;;;;;;4.35;40.29;101290.03;7762488;32;39919;-76
2022/03/01 09:01:58;;;;;;;18.48;9.82;;;;;;;5.27;38.87;101286.28;7762454;32;37910;-76
2022/03/01 09:06:14;;;;;;;20.60;10.75;;;;;;;5.77;37.71;101279.84;7764003;32;36996;-76
2022/03/01 09:10:30;;;;;;;20.95;12.68;;;;;;;5.76;37.86;101267.34;7747887;32;39919;-75
2022/03/01 09:14:46;;;;;;;17.12;9.60;;;;;;;5.92;37.19;101268.88;7723730;32;39763;-77
2022/03/01 09:19:02;;;;;;;11.95;7.15;;;;;;;5.81;37.20;101270.28;7750522;32;37877;-76
2022/03/01 09:23:19;;;;;;;12.35;7.05;;;;;;;5.77;36.94;101269.84;7760525;32;37627;-77
2022/03/01 09:27:35;;;;;;;10.98;6.28;;;;;;;6.11;35.04;101240.19;7739948;32;39781;-77
2022/03/01 09:31:51;;;;;;;12.90;7.12;;;;;;;6.37;33.35;101234.78;7748671;32;39724;-77
2022/03/01 09:36:07;;;;;;;5.53;4.00;;;;;;;6.61;30.74;101232.47;7756132;32;37973;-76
2022/03/01 09:40:23;;;;;;;5.12;3.28;;;;;;;7.09;26.88;101225.91;7741446;32;38552;-77
2022/03/01 09:44:39;;;;;;;4.15;2.80;;;;;;;7.80;24.20;101205.94;7751520;32;39473;-76
2022/03/01 09:48:56;;;;;;;4.45;2.70;;;;;;;8.84;23.78;101202.78;7751326;32;40028;-77
2022/03/01 09:53:12;;;;;;;5.70;3.12;;;;;;;8.93;21.02;101195.16;7738818;32;36483;-76
2022/03/01 09:57:28;;;;;;;4.68;2.40;;;;;;;9.89;20.53;101187.19;7753999;32;36992;-76
2022/03/01 10:01:51;;;;;;;4.10;2.53;;;;;;;10.58;19.12;101178.53;7739031;32;40320;-76
2022/03/01 10:06:09;;;;;;;4.15;2.35;;;;;;;10.59;19.29;101178.31;7737946;32;40001;-76
2022/03/01 10:10:35;;;;;;;6.47;2.72;;;;;;;11.04;19.13;101168.63;7739235;32;38747;-76
2022/03/01 10:15:10;;;;;;;;;;;;;;;11.49;18.83;101167.03;7726271;32;37681;-76
2022/03/01 10:19:26;;;;;;;4.68;2.28;;;;;;;11.74;18.31;101156.56;7738735;32;39522;-76
2022/03/01 10:24:00;;;;;;;9.20;2.60;;;;;;;12.11;18.09;101152.59;7739251;32;39750;-77
2022/03/01 10:28:16;;;;;;;6.70;2.60;;;;;;;11.84;17.34;101147.72;7738818;32;37850;-77
2022/03/01 10:32:34;;;;;;;7.87;2.50;;;;;;;13.06;16.12;101131.47;7739386;32;36726;-77
2022/03/01 10:36:57;;;;;;;3.37;2.22;;;;;;;12.56;15.73;101127.81;7738468;32;39179;-77
2022/03/01 10:41:22;;;;;;;2.85;2.22;;;;;;;13.19;15.06;101123.94;7739606;32;40730;-77
2022/03/01 10:45:47;;;;;;;4.80;2.22;;;;;;;13.07;15.08;101116.72;7726023;32;37855;-77
2022/03/01 10:50:10;;;;;;;3.83;2.28;;;;;;;13.63;14.00;101096.50;7738895;32;37688;-76
2022/03/01 10:54:38;;;;;;;5.80;2.20;;;;;;;14.15;13.67;101084.81;7725004;32;39772;-76
2022/03/01 10:58:56;;;;;;;3.20;2.05;;;;;;;14.79;13.76;101070.09;7738873;32;39907;-76
2022/03/01 11:03:12;;;;;;;3.00;2.15;;;;;;;14.75;13.32;101057.19;7738571;32;38661;-76
2022/03/01 11:07:29;;;;;;;3.45;1.98;;;;;;;15.02;12.65;101051.47;7737070;32;36686;-75
2022/03/01 11:11:48;;;;;;;4.50;2.00;;;;;;;15.47;12.31;101043.59;7738557;32;38151;-75
2022/03/01 11:16:26;;;;;;;2.67;1.83;;;;;;;14.76;11.75;101029.47;7751591;32;38387;-74
2022/03/01 11:20:44;;;;;;;3.67;2.20;;;;;;;16.05;11.32;101013.88;7762251;32;39194;-74
2022/03/01 11:25:01;;;;;;;4.03;2.05;;;;;;;16.19;10.84;100997.59;7759704;32;38134;-75
2022/03/01 11:29:18;;;;;;;2.90;1.83;;;;;;;16.39;10.51;100991.22;7752586;32;39081;-74
2022/03/01 11:33:36;;;;;;;3.60;1.80;;;;;;;16.21;9.83;100978.06;7737459;32;39873;-75
2022/03/01 11:38:02;;;;;;;2.87;1.60;;;;;;;16.47;10.63;100982.37;7742548;32;37921;-75
2022/03/01 11:42:32;;;;;;;3.60;2.10;;;;;;;16.87;10.53;100980.53;7764703;32;36917;-73
2022/03/01 11:46:50;;;;;;;3.45;2.10;;;;;;;17.11;9.70;100974.31;7750454;32;39202;-73
2022/03/01 11:51:06;;;;;;;3.25;2.25;;;;;;;16.03;11.44;100972.06;7752326;32;40945;-73
2022/03/01 11:55:22;;;;;;;3.67;2.00;;;;;;;15.97;11.65;100959.47;7762919;32;37628;-73
2022/03/01 11:59:40;;;;;;;4.47;2.10;;;;;;;15.88;11.80;100958.38;7743468;32;36730;-73
2022/03/01 12:04:06;;;;;;;3.20;2.12;;;;;;;15.42;12.70;100966.66;7750125;32;40390;-74
2022/03/01 12:08:23;;;;;;;4.20;2.15;;;;;;;14.57;12.80;100959.66;7764231;32;39066;-73
2022/03/01 12:12:45;;;;;;;6.30;2.28;;;;;;;13.89;13.91;100947.56;7763729;32;37964;-73
2022/03/01 12:17:18;;;;;;;2.58;2.03;;;;;;;13.40;13.65;100953.31;7750113;32;37711;-74
2022/03/01 12:21:34;;;;;;;6.60;2.37;;;;;;;12.40;15.75;100953.69;7739818;32;39151;-72
2022/03/01 12:25:50;;;;;;;5.03;2.47;;;;;;;12.61;15.80;100941.06;7737002;32;41117;-74
2022/03/01 12:30:07;;;;;;;7.85;3.00;;;;;;;13.10;15.50;100927.28;7736895;32;38073;-74
2022/03/01 12:34:26;;;;;;;4.57;2.80;;;;;;;13.55;15.67;100918.87;7758520;32;37002;-73
2022/03/01 12:38:50;;;;;;;5.05;2.90;;;;;;;13.95;15.05;100922.94;7749393;32;39157;-74
2022/03/01 12:43:09;;;;;;;7.87;3.10;;;;;;;14.06;15.02;100919.16;7750369;32;40060;-75
2022/03/01 12:47:25;;;;;;;6.60;3.03;;;;;;;12.42;16.85;100917.84;7763468;32;37997;-74
2022/03/01 12:51:43;;;;;;;5.90;3.28;;;;;;;12.94;16.00;100906.34;7763109;32;36985;-72
2022/03/01 12:55:59;;;;;;;6.82;3.35;;;;;;;13.75;15.68;100919.00;7763531;32;39038;-72
2022/03/01 13:00:15;;;;;;;5.15;3.40;;;;;;;13.02;15.78;100905.03;7762630;32;40777;-74
2022/03/01 13:04:34;;;;;;;5.47;2.92;;;;;;;13.23;15.55;100903.25;7763315;32;38682;-72
2022/03/01 13:08:53;;;;;;;8.95;2.95;;;;;;;12.61;16.42;100894.53;7760420;32;36120;-80
2022/03/01 13:13:09;;;;;;;4.00;2.80;;;;;;;13.13;18.89;100891.16;7763021;32;39058;-77
2022/03/01 13:17:25;;;;;;;6.45;3.10;;;;;;;12.95;16.04;100894.28;7762279;32;39847;-76
2022/03/01 13:21:50;;;;;;;6.97;3.00;;;;;;;12.69;15.49;100885.03;7734018;32;37547;-75
2022/03/01 13:26:08;;;;;;;4.43;2.83;;;;;;;12.33;15.98;100882.78;7732599;32;36518;-75
2022/03/01 13:30:25;;;;;;;6.15;3.15;;;;;;;12.18;15.76;100867.00;7735258;32;38852;-74
2022/03/01 13:34:43;;;;;;;6.28;3.12;;;;;;;12.61;15.46;100852.66;7761354;32;40749;-73
2022/03/01 13:39:04;;;;;;;5.18;2.40;;;;;;;13.69;14.00;100837.84;7761215;32;38267;-74
2022/03/01 13:43:26;;;;;;;3.72;1.92;;;;;;;14.35;13.64;100833.66;7762651;32;37020;-74
2022/03/01 13:47:44;;;;;;;4.68;2.47;;;;;;;15.24;12.72;100822.44;7762820;32;40145;-74
2022/03/01 13:52:10;;;;;;;3.75;2.00;;;;;;;14.08;11.78;100818.25;7735301;32;38948;-73
2022/03/01 13:56:26;;;;;;;3.42;2.10;;;;;;;14.69;10.67;100811.25;7735585;32;39064;-73
2022/03/01 14:00:48;;;;;;;4.05;2.25;;;;;;;16.18;9.93;100808.06;7733949;32;37066;-73
2022/03/01 14:05:09;;;;;;;7.40;2.55;;;;;;;17.37;9.81;100801.28;7735227;32;39054;-75
2022/03/01 14:09:25;;;;;;;6.05;2.10;;;;;;;17.40;9.08;100800.72;7745093;32;40730;-75
2022/03/01 14:13:43;;;;;;;5.62;2.20;;;;;;;15.24;10.26;100801.28;7765823;32;38635;-74
2022/03/01 14:17:59;;;;;;;5.03;2.42;;;;;;;16.22;10.27;100798.16;7751466;32;37292;-75
2022/03/01 14:22:16;;;;;;;5.45;2.40;;;;;;;16.52;10.29;100792.44;7748728;32;39035;-75
2022/03/01 14:26:32;;;;;;;3.65;2.00;;;;;;;17.06;10.63;100781.53;7765453;32;39968;-75
2022/03/01 14:30:48;;;;;;;4.00;1.98;;;;;;;17.83;9.50;100780.59;7748291;32;38089;-75
2022/03/01 14:35:04;;;;;;;12.75;2.20;;;;;;;17.61;10.44;100773.72;7765829;32;37729;-74
2022/03/01 14:39:20;;;;;;;3.67;2.00;;;;;;;18.27;9.88;100773.94;7756406;32;40224;-75
2022/03/01 14:43:36;;;;;;;3.12;1.98;;;;;;;17.66;9.59;100778.34;7739502;32;39910;-76
2022/03/01 14:47:53;;;;;;;3.28;2.10;;;;;;;18.57;9.22;100763.50;7744304;32;38637;-75
2022/03/01 14:52:10;;;;;;;5.03;2.05;;;;;;;18.67;8.66;100766.09;7742929;32;36882;-74
2022/03/01 14:56:26;;;;;;;4.30;2.00;;;;;;;19.23;9.14;100758.78;7762566;32;40093;-75
2022/03/01 15:00:43;;;;;;;5.72;2.50;;;;;;;18.91;8.84;100768.75;7750919;32;39987;-76
2022/03/01 15:05:00;;;;;;;6.72;2.15;;;;;;;17.99;8.81;100756.44;7743925;32;38635;-76
2022/03/01 15:09:16;;;;;;;3.78;2.30;;;;;;;19.20;8.56;100747.50;7758865;32;36917;-75
2022/03/01 15:13:32;;;;;;;5.53;2.00;;;;;;;19.22;8.61;100751.59;7751011;32;40387;-75
2022/03/01 15:17:49;;;;;;;36.13;21.37;;;;;;;19.84;8.04;100742.84;7764450;32;39914;-75
2022/03/01 15:22:07;;;;;;;7.80;3.87;;;;;;;19.94;7.54;100733.50;7742638;32;38615;-76
2022/03/01 15:26:28;;;;;;;11.05;2.30;;;;;;;22.20;6.34;100737.63;7756680;32;36109;-77
2022/03/01 15:30:44;;;;;;;8.45;2.55;;;;;;;24.35;4.93;100721.41;7765209;32;39945;-76
2022/03/01 15:35:01;;;;;;;16.48;11.65;;;;;;;24.37;5.24;100724.66;7759612;32;39748;-76
2022/03/01 15:39:17;;;;;;;16.20;10.93;;;;;;;23.08;6.27;100724.38;7764402;32;37508;-76
2022/03/01 15:43:33;;;;;;;9.40;4.60;;;;;;;20.73;7.74;100734.09;7760369;32;37916;-76
2022/03/01 15:47:50;;;;;;;9.15;5.60;;;;;;;19.31;8.77;100735.09;7765265;32;39350;-76
2022/03/01 15:52:08;;;;;;;12.80;5.50;;;;;;;18.10;9.35;100740.53;7759500;32;40953;-76
2022/03/01 15:56:24;;;;;;;11.30;3.42;;;;;;;16.86;9.85;100741.22;7741521;32;38703;-76
2022/03/01 16:00:41;;;;;;;14.60;6.07;;;;;;;16.44;10.29;100740.75;7738148;32;37130;-76
2022/03/01 16:04:59;;;;;;;14.85;8.63;;;;;;;15.43;12.24;100753.97;7755601;32;38676;-74
2022/03/01 16:09:15;;;;;;;7.78;4.50;;;;;;;15.00;12.52;100744.22;7741705;32;40612;-74
2022/03/01 16:13:31;;;;;;;3.90;2.33;;;;;;;14.49;13.21;100747.00;7764035;32;38539;-74
2022/03/01 16:17:46;;;;;;;3.72;2.35;;;;;;;13.60;14.18;100747.12;7752235;32;37472;-74
2022/03/01 16:22:04;;;;;;;7.50;2.30;;;;;;;13.26;14.62;100752.13;7740453;32;38971;-75
2022/03/01 16:26:20;;;;;;;6.65;3.60;;;;;;;13.07;14.55;100752.63;7744336;32;39921;-74
2022/03/01 16:30:36;;;;;;;7.30;2.40;;;;;;;12.63;14.89;100746.56;7760632;32;38697;-75
2022/03/01 16:34:52;;;;;;;17.40;3.10;;;;;;;12.19;14.94;100750.28;7736315;32;37023;-75
2022/03/01 16:39:09;;;;;;;9.15;2.60;;;;;;;11.96;15.75;100754.97;7761047;32;39199;-74
2022/03/01 16:43:25;;;;;;;7.57;2.62;;;;;;;11.51;15.92;100756.09;7764242;32;40616;-73
2022/03/01 16:47:41;;;;;;;7.62;3.50;;;;;;;11.29;15.50;100756.06;7762768;32;37670;-74
2022/03/01 16:51:58;;;;;;;13.68;5.55;;;;;;;10.74;15.06;100768.66;7759466;32;145901;-73
2022/03/01 16:56:14;;;;;;;12.35;5.35;;;;;;;10.63;16.23;100767.69;7754488;32;40481;-73
2022/03/01 17:00:32;;;;;;;23.90;7.10;;;;;;;10.62;16.79;100767.94;7733420;32;40578;-74
2022/03/01 17:04:52;;;;;;;9.98;5.45;;;;;;;10.31;17.68;100778.28;7741414;32;38739;-74
2022/03/01 17:09:09;;;;;;;9.80;4.62;;;;;;;9.88;18.31;100779.69;7763557;32;36863;-74
2022/03/01 17:13:25;;;;;;;15.70;4.50;;;;;;;9.81;18.63;100787.97;7743375;32;39195;-74
2022/03/01 17:17:41;;;;;;;10.43;4.57;;;;;;;9.31;19.37;100784.00;7736837;32;40500;-74
2022/03/01 17:21:57;;;;;;;9.20;4.93;;;;;;;9.47;19.24;100781.56;7735939;32;37797;-74
2022/03/01 17:26:13;;;;;;;7.12;3.75;;;;;;;9.25;18.39;100795.81;7759959;32;37823;-74
2022/03/01 17:30:29;;;;;;;10.05;4.93;;;;;;;9.27;19.62;100790.97;7763160;32;40030;-74
2022/03/01 17:34:48;;;;;;;15.85;5.25;;;;;;;8.98;19.90;100792.75;7751340;32;40868;-74
2022/03/01 17:39:25;;;;;;;7.75;4.07;;;;;;;8.73;19.51;100793.00;7762440;32;38057;-74
2022/03/01 17:43:41;;;;;;;11.75;5.20;;;;;;;8.86;20.42;100790.03;7762221;32;37741;-74
2022/03/01 17:47:58;;;;;;;8.70;4.62;;;;;;;8.61;20.88;100791.09;7765043;32;39328;-74
2022/03/01 17:52:15;;;;;;;11.65;5.30;;;;;;;8.40;20.67;100797.88;7765205;32;39725;-74
2022/03/01 17:56:32;;;;;;;12.20;5.82;;;;;;;8.31;20.42;100791.09;7757784;32;38788;-73
2022/03/01 18:00:49;;;;;;;17.87;5.75;;;;;;;8.10;21.79;100797.88;7765922;32;36945;-73
2022/03/01 18:05:06;;;;;;;27.00;6.43;;;;;;;8.16;21.44;100799.69;7747276;32;40185;-73
2022/03/01 18:09:22;;;;;;;19.00;8.30;;;;;;;7.77;21.64;100801.06;7739233;32;40841;-74
2022/03/01 18:13:38;;;;;;;17.60;7.12;;;;;;;7.43;23.65;100806.87;7747580;32;37917;-72
2022/03/01 18:17:55;;;;;;;13.60;5.80;;;;;;;7.62;23.83;100799.56;7764628;32;37520;-74
2022/03/01 18:22:12;;;;;;;12.10;5.97;;;;;;;7.36;23.68;100800.69;7765871;32;39293;-74
2022/03/01 18:26:33;;;;;;;13.05;6.70;;;;;;;7.30;22.70;100796.19;7739070;32;39633;-73
2022/03/01 18:30:50;;;;;;;17.37;6.12;;;;;;;7.15;22.47;100805.50;7738638;32;38564;-74
2022/03/01 18:35:07;;;;;;;15.50;7.15;;;;;;;6.97;23.45;100808.19;7758966;32;37009;-73
2022/03/01 18:39:23;;;;;;;12.90;6.60;;;;;;;6.85;24.35;100809.97;7757268;32;39102;-73
2022/03/01 18:43:40;;;;;;;15.20;7.30;;;;;;;6.73;24.74;100807.97;7754292;32;39958;-73
2022/03/01 18:47:56;;;;;;;12.25;6.75;;;;;;;6.89;24.17;100805.75;7747031;32;38732;-72
2022/03/01 18:52:12;;;;;;;15.65;7.93;;;;;;;6.96;24.30;100803.81;7742321;32;38234;-74
2022/03/01 18:56:31;;;;;;;16.60;7.12;;;;;;;6.62;25.42;100808.69;7738416;32;39019;-73
2022/03/01 19:00:49;;;;;;;15.00;7.10;;;;;;;6.54;26.20;100808.97;7748443;32;40039;-73
2022/03/01 19:05:07;;;;;;;13.62;6.60;;;;;;;6.43;27.05;100812.38;7741442;32;37802;-73
2022/03/01 19:09:23;;;;;;;12.05;5.55;;;;;;;6.41;26.96;100809.06;7747949;32;37026;-73
2022/03/01 19:13:40;;;;;;;13.82;5.87;;;;;;;6.39;25.15;100812.81;7752323;32;39412;-73
2022/03/01 19:17:58;;;;;;;12.30;5.87;;;;;;;6.10;25.25;100813.44;7765254;32;40022;-73
2022/03/01 19:22:14;;;;;;;10.85;5.10;;;;;;;6.42;26.06;100816.16;7765035;32;37855;-73
2022/03/01 19:26:30;;;;;;;11.00;4.78;;;;;;;6.40;25.73;100808.25;7747194;32;36998;-73
2022/03/01 19:30:47;;;;;;;8.50;4.20;;;;;;;5.96;26.33;100801.84;7747097;32;39021;-73
2022/03/01 19:35:04;;;;;;;12.50;4.85;;;;;;;5.94;25.32;100802.03;7742147;32;39783;-72
2022/03/01 19:39:20;;;;;;;8.55;4.53;;;;;;;5.87;24.94;100798.53;7747414;32;38675;-72
2022/03/01 19:43:36;;;;;;;8.63;4.78;;;;;;;6.11;24.68;100793.44;7751145;32;37718;-73
2022/03/01 19:47:54;;;;;;;9.85;5.10;;;;;;;5.85;25.56;100797.94;7764777;32;39328;-73
2022/03/01 19:52:10;;;;;;;8.07;4.50;;;;;;;5.54;26.23;100788.69;7761434;32;40191;-73
2022/03/01 19:56:27;;;;;;;8.85;5.18;;;;;;;5.54;26.17;100787.88;7750062;32;38678;-72
2022/03/01 20:00:43;;;;;;;11.18;5.45;;;;;;;5.46;25.24;100789.75;7758517;32;37051;-73